createdAt,value
2018-09-11T00:02:22.217Z,99746.43
2018-09-11T00:05:25.379Z,99744.64
2018-09-11T00:08:29.603Z,99745.09
2018-09-11T00:11:39.782Z,99748.17
2018-09-11T00:14:43.195Z,99754.81
2018-09-11T00:17:46.384Z,99752.22
2018-09-11T00:20:50.732Z,99751.54
2018-09-11T00:23:55.992Z,99753.73
2018-09-11T00:27:04.567Z,99758.14
2018-09-11T00:33:56.516Z,99756.14
2018-09-11T00:36:59.665Z,99753.50
2018-09-11T00:40:02.891Z,99755.09
2018-09-11T00:43:06.284Z,99756.38
2018-09-11T00:46:09.548Z,99761.88
2018-09-11T00:49:13.833Z,99766.84
2018-09-11T00:52:22.171Z,99763.89
2018-09-11T00:55:25.519Z,99774.74
2018-09-11T00:58:28.653Z,99776.91
2018-09-11T01:01:31.839Z,99778.41
2018-09-11T01:04:34.942Z,99783.03
2018-09-11T01:07:38.156Z,99789.19
2018-09-11T01:10:41.473Z,99793.17
2018-09-11T01:13:45.748Z,99797.13
2018-09-11T01:16:50.533Z,99798.59
2018-09-11T01:19:54.739Z,99801.21
2018-09-11T01:23:00.997Z,99804.11
2018-09-11T01:26:04.232Z,99804.98
2018-09-11T01:29:07.522Z,99802.84
2018-09-11T01:32:10.734Z,99799.08
2018-09-11T01:35:13.948Z,99805.72
2018-09-11T01:38:18.365Z,99796.69
2018-09-11T01:41:21.715Z,99796.88
2018-09-11T01:44:25.940Z,99799.03
2018-09-11T01:47:29.083Z,99795.73
2018-09-11T01:50:32.271Z,99796.67
2018-09-11T01:53:39.459Z,99802.03
2018-09-11T01:56:42.804Z,99792.73
2018-09-11T01:59:46.064Z,99789.14
2018-09-11T02:02:50.354Z,99785.27
2018-09-11T02:05:53.723Z,99787.52
2018-09-11T02:08:57.899Z,99793.05
2018-09-11T02:12:01.194Z,99796.95
2018-09-11T02:15:05.286Z,99792.34
2018-09-11T02:18:08.430Z,99798.41
2018-09-11T02:21:11.565Z,99796.80
2018-09-11T02:24:14.765Z,99804.21
2018-09-11T02:27:18.025Z,99809.69
2018-09-11T02:30:21.789Z,99801.45
2018-09-11T02:33:25.101Z,99804.84
2018-09-11T02:36:28.473Z,99807.97
2018-09-11T02:39:31.840Z,99799.42
2018-09-11T02:42:35.334Z,99798.84
2018-09-11T02:45:38.562Z,99804.48
2018-09-11T02:48:41.702Z,99806.95
2018-09-11T02:51:44.927Z,99803.46
2018-09-11T02:54:48.441Z,99809.73
2018-09-11T02:57:52.146Z,99811.05
2018-09-11T03:00:57.376Z,99807.86
2018-09-11T03:04:00.656Z,99804.97
2018-09-11T03:07:03.730Z,99812.72
2018-09-11T03:10:07.029Z,99811.41
2018-09-11T03:13:10.031Z,99811.77
2018-09-11T03:16:13.227Z,99810.75
2018-09-11T03:19:16.287Z,99817.95
2018-09-11T03:22:19.484Z,99819.95
2018-09-11T03:25:22.705Z,99818.54
2018-09-11T03:28:26.099Z,99826.58
2018-09-11T03:31:29.324Z,99821.53
2018-09-11T03:34:32.457Z,99826.10
2018-09-11T03:37:35.818Z,99812.57
2018-09-11T03:40:39.380Z,99812.56
2018-09-11T03:43:42.681Z,99813.23
2018-09-11T03:46:45.894Z,99809.28
2018-09-11T03:49:49.149Z,99805.14
2018-09-11T03:52:52.515Z,99804.39
2018-09-11T03:55:55.895Z,99806.78
2018-09-11T03:58:59.074Z,99797.83
2018-09-11T04:02:02.512Z,99802.05
2018-09-11T04:05:06.046Z,99804.54
2018-09-11T04:08:09.371Z,99809.38
2018-09-11T04:11:12.556Z,99805.58
2018-09-11T04:14:15.752Z,99804.67
2018-09-11T04:17:19.140Z,99804.21
2018-09-11T04:20:22.450Z,99809.44
2018-09-11T04:23:25.575Z,99813.72
2018-09-11T04:26:28.788Z,99812.52
2018-09-11T04:29:32.033Z,99816.84
2018-09-11T04:32:35.161Z,99812.30
2018-09-11T04:35:38.525Z,99808.03
2018-09-11T04:38:41.827Z,99805.23
2018-09-11T04:41:45.173Z,99812.64
2018-09-11T04:44:48.348Z,99808.66
2018-09-11T04:47:51.497Z,99809.11
2018-09-11T04:50:54.750Z,99802.19
2018-09-11T04:53:57.906Z,99811.17
2018-09-11T04:57:01.110Z,99808.22
2018-09-11T05:00:04.639Z,99809.44
2018-09-11T05:03:07.893Z,99808.72
2018-09-11T05:06:11.101Z,99803.95
2018-09-11T05:09:14.275Z,99806.20
2018-09-11T05:12:17.478Z,99799.94
2018-09-11T05:15:20.696Z,99807.08
2018-09-11T05:18:24.095Z,99808.16
2018-09-11T05:21:27.230Z,99810.70
2018-09-11T05:24:30.361Z,99820.13
2018-09-11T05:27:33.534Z,99815.77
2018-09-11T05:30:36.613Z,99821.69
2018-09-11T05:33:39.751Z,99825.52
2018-09-11T05:36:42.800Z,99828.15
2018-09-11T05:39:45.889Z,99826.19
2018-09-11T05:42:49.080Z,99830.00
2018-09-11T05:45:52.350Z,99825.64
2018-09-11T05:48:55.567Z,99831.83
2018-09-11T05:51:58.744Z,99829.84
2018-09-11T05:55:02.031Z,99831.42
2018-09-11T05:59:29.884Z,99844.94
2018-09-11T06:02:33.190Z,99841.28
2018-09-11T06:05:36.428Z,99846.69
2018-09-11T06:08:39.852Z,99844.31
2018-09-11T06:11:42.934Z,99846.19
2018-09-11T06:14:46.032Z,99844.83
2018-09-11T06:17:50.214Z,99840.89
2018-09-11T06:20:53.356Z,99849.20
2018-09-11T06:23:56.725Z,99845.45
2018-09-11T06:26:59.817Z,99845.70
2018-09-11T06:30:03.426Z,99838.78
2018-09-11T06:33:06.610Z,99836.83
2018-09-11T06:36:09.680Z,99836.06
2018-09-11T06:39:12.867Z,99829.38
2018-09-11T06:42:16.133Z,99841.06
2018-09-11T06:45:19.287Z,99825.95
2018-09-11T06:48:22.495Z,99826.22
2018-09-11T06:51:26.227Z,99825.03
2018-09-11T06:54:29.352Z,99824.16
2018-09-11T06:57:32.485Z,99816.67
2018-09-11T07:00:35.592Z,99824.13
2018-09-11T07:03:38.632Z,99825.10
2018-09-11T07:06:41.768Z,99828.66
2018-09-11T07:09:44.937Z,99835.09
2018-09-11T07:12:48.053Z,99835.91
2018-09-11T07:15:51.746Z,99837.52
2018-09-11T07:18:54.952Z,99832.16
2018-09-11T07:21:58.143Z,99850.96
2018-09-11T07:25:01.265Z,99845.16
2018-09-11T07:28:04.413Z,99842.84
2018-09-11T07:31:07.582Z,99847.45
2018-09-11T07:34:10.776Z,99851.80
2018-09-11T07:37:13.937Z,99846.20
2018-09-11T07:40:17.194Z,99848.71
2018-09-11T07:43:20.376Z,99846.80
2018-09-11T07:46:23.484Z,99851.19
2018-09-11T07:49:26.716Z,99852.69
2018-09-11T07:52:29.991Z,99858.98
2018-09-11T07:55:33.037Z,99855.62
2018-09-11T07:58:36.216Z,99853.54
2018-09-11T08:01:39.332Z,99854.25
2018-09-11T08:04:42.375Z,99855.63
2018-09-11T08:07:45.601Z,99852.14
2018-09-11T08:10:48.739Z,99857.27
2018-09-11T08:13:51.972Z,99854.89
2018-09-11T08:16:55.093Z,99857.89
2018-09-11T08:19:58.350Z,99836.43
2018-09-11T08:23:01.384Z,99852.37
2018-09-11T08:26:05.272Z,99851.23
2018-09-11T08:29:08.401Z,99856.02
2018-09-11T08:32:11.530Z,99849.22
2018-09-11T08:35:14.660Z,99853.91
2018-09-11T08:38:17.836Z,99855.73
2018-09-11T08:41:21.233Z,99848.27
2018-09-11T08:44:24.360Z,99852.77
2018-09-11T08:48:30.702Z,99855.72
2018-09-11T08:51:33.796Z,99862.45
2018-09-11T08:54:36.921Z,99852.61
2018-09-11T08:57:40.190Z,99856.71
2018-09-11T09:00:43.355Z,99866.38
2018-09-11T09:03:46.742Z,99866.22
2018-09-11T09:06:49.919Z,99871.59
2018-09-11T09:09:53.153Z,99870.86
2018-09-11T09:12:56.481Z,99861.85
2018-09-11T09:15:59.582Z,99870.28
2018-09-11T09:19:02.757Z,99864.25
2018-09-11T09:22:05.958Z,99864.50
2018-09-11T09:25:09.191Z,99853.60
2018-09-11T09:28:12.436Z,99863.95
2018-09-11T09:31:15.637Z,99858.30
2018-09-11T09:34:18.839Z,99868.67
2018-09-11T09:37:22.381Z,99868.09
2018-09-11T09:40:25.620Z,99868.36
2018-09-11T09:43:28.855Z,99867.66
2018-09-11T09:46:31.981Z,99861.94
2018-09-11T09:49:35.049Z,99853.60
2018-09-11T09:52:38.227Z,99859.26
2018-09-11T09:55:41.273Z,99854.61
2018-09-11T09:58:44.527Z,99848.29
2018-09-11T10:02:23.550Z,99839.51
2018-09-11T10:05:26.822Z,99829.60
2018-09-11T10:08:30.028Z,99820.09
2018-09-11T10:11:33.221Z,99819.41
2018-09-11T10:14:36.838Z,99812.13
2018-09-11T10:17:40.212Z,99811.70
2018-09-11T10:20:43.568Z,99815.83
2018-09-11T10:23:46.692Z,99813.02
2018-09-11T10:26:49.900Z,99807.70
2018-09-11T10:29:53.206Z,99806.62
2018-09-11T10:32:56.484Z,99798.83
2018-09-11T10:35:59.829Z,99794.66
2018-09-11T10:39:03.895Z,99789.16
2018-09-11T10:42:07.272Z,99783.00
2018-09-11T10:45:10.502Z,99782.88
2018-09-11T10:48:13.898Z,99778.03
2018-09-11T10:51:17.084Z,99786.13
2018-09-11T10:54:20.311Z,99768.16
2018-09-11T10:57:23.542Z,99762.73
2018-09-11T11:00:26.976Z,99770.20
2018-09-11T11:03:30.025Z,99762.66
2018-09-11T11:06:33.393Z,99749.97
2018-09-11T11:09:36.498Z,99747.78
2018-09-11T11:12:39.605Z,99743.39
2018-09-11T11:15:42.777Z,99739.05
2018-09-11T11:18:46.062Z,99733.79
2018-09-11T11:21:49.312Z,99725.06
2018-09-11T11:24:52.415Z,99736.78
2018-09-11T11:27:55.622Z,99740.94
2018-09-11T11:30:58.898Z,99727.64
2018-09-11T11:34:02.253Z,99727.25
2018-09-11T11:37:05.589Z,99727.73
2018-09-11T11:40:08.967Z,99717.28
2018-09-11T11:43:12.200Z,99723.44
2018-09-11T11:46:15.454Z,99730.70
2018-09-11T11:49:18.607Z,99721.13
2018-09-11T11:52:21.803Z,99719.02
2018-09-11T11:55:25.044Z,99716.02
2018-09-11T11:58:28.273Z,99717.02
2018-09-11T12:01:31.577Z,99713.55
2018-09-11T12:04:34.683Z,99720.20
2018-09-11T12:07:37.922Z,99714.81
2018-09-11T12:10:41.156Z,99711.30
2018-09-11T12:13:44.466Z,99716.09
2018-09-11T12:16:47.592Z,99700.62
2018-09-11T12:19:50.777Z,99690.78
2018-09-11T12:22:53.992Z,99707.59
2018-09-11T12:25:57.181Z,99706.38
2018-09-11T12:29:00.259Z,99699.41
2018-09-11T12:32:03.390Z,99700.94
2018-09-11T12:35:07.684Z,99689.44
2018-09-11T12:38:10.939Z,99710.13
2018-09-11T12:41:14.073Z,99695.56
2018-09-11T12:44:17.158Z,99695.55
2018-09-11T12:47:20.723Z,99684.97
2018-09-11T12:50:23.690Z,99676.78
2018-09-11T12:53:27.486Z,99685.66
2018-09-11T12:56:30.668Z,99691.67
2018-09-11T12:59:33.715Z,99698.89
2018-09-11T13:02:36.830Z,99687.77
2018-09-11T13:05:39.939Z,99681.66
2018-09-11T13:08:43.065Z,99677.55
2018-09-11T13:17:07.459Z,99676.05
2018-09-11T13:20:10.609Z,99661.03
2018-09-11T13:23:13.830Z,99673.39
2018-09-11T13:26:16.950Z,99681.02
2018-09-11T13:29:20.190Z,99685.00
2018-09-11T13:32:23.746Z,99673.48
2018-09-11T13:35:26.998Z,99672.53
2018-09-11T13:38:30.098Z,99638.78
2018-09-11T13:41:33.195Z,99653.65
2018-09-11T13:44:36.386Z,99652.09
2018-09-11T13:47:39.472Z,99642.64
2018-09-11T13:50:42.838Z,99645.61
2018-09-11T13:53:45.984Z,99635.53
2018-09-11T13:56:49.290Z,99646.81
2018-09-11T13:59:52.375Z,99646.26
2018-09-11T14:02:55.606Z,99621.47
2018-09-11T14:05:58.760Z,99629.45
2018-09-11T14:09:01.896Z,99613.23
2018-09-11T14:12:05.089Z,99624.94
2018-09-11T14:15:08.169Z,99608.67
2018-09-11T14:18:11.256Z,99623.86
2018-09-11T14:21:14.776Z,99621.38
2018-09-11T14:24:17.910Z,99628.37
2018-09-11T14:27:21.465Z,99633.72
2018-09-11T14:30:24.636Z,99624.91
2018-09-11T14:33:27.923Z,99622.03
2018-09-11T14:36:31.168Z,99608.92
2018-09-11T14:39:34.324Z,99612.53
2018-09-11T14:42:40.820Z,99607.06
2018-09-11T14:45:44.030Z,99582.48
2018-09-11T14:48:47.283Z,99594.86
2018-09-11T14:51:50.570Z,99607.89
2018-09-11T14:54:54.059Z,99596.98
2018-09-11T14:57:57.287Z,99606.10
2018-09-11T15:01:00.578Z,99605.60
2018-09-11T15:04:03.776Z,99606.61
2018-09-11T15:07:07.068Z,99598.03
2018-09-11T15:10:10.313Z,99577.80
2018-09-11T15:13:13.615Z,99603.22
2018-09-11T15:16:16.943Z,99588.12
2018-09-11T15:19:20.148Z,99587.95
2018-09-11T15:22:23.393Z,99582.17
2018-09-11T15:25:26.527Z,99588.17
2018-09-11T15:28:30.036Z,99591.12
2018-09-11T15:31:33.127Z,99588.68
2018-09-11T15:34:36.461Z,99583.91
2018-09-11T15:37:39.589Z,99578.26
2018-09-11T15:40:42.706Z,99585.95
2018-09-11T15:43:46.003Z,99578.46
2018-09-11T15:46:49.167Z,99580.49
2018-09-11T15:49:52.825Z,99565.67
2018-09-11T15:52:55.974Z,99559.99
2018-09-11T15:55:59.252Z,99556.66
2018-09-11T15:59:03.087Z,99564.11
2018-09-11T16:02:06.471Z,99551.69
2018-09-11T16:05:09.686Z,99554.13
2018-09-11T16:08:12.829Z,99550.13
2018-09-11T16:11:15.947Z,99537.03
2018-09-11T16:14:19.105Z,99535.09
2018-09-11T16:17:22.344Z,99544.20
2018-09-11T16:20:26.385Z,99531.67
2018-09-11T16:23:30.686Z,99526.75
2018-09-11T16:26:33.968Z,99553.16
2018-09-11T16:29:37.196Z,99543.17
2018-09-11T16:32:40.567Z,99541.69
2018-09-11T16:35:43.709Z,99531.10
2018-09-11T16:38:46.841Z,99527.39
2018-09-11T16:41:50.289Z,99530.47
2018-09-11T16:44:53.337Z,99531.84
2018-09-11T16:47:56.575Z,99537.95
2018-09-11T16:50:59.649Z,99532.24
2018-09-11T16:54:03.202Z,99532.79
2018-09-11T16:57:06.643Z,99533.80
2018-09-11T17:00:09.849Z,99533.83
2018-09-11T17:03:14.094Z,99538.83
2018-09-11T17:06:17.188Z,99539.86
2018-09-11T17:09:20.390Z,99536.88
2018-09-11T17:12:23.768Z,99540.39
2018-09-11T17:15:27.083Z,99540.38
2018-09-11T17:18:30.245Z,99542.88
2018-09-11T17:21:33.489Z,99537.91
2018-09-11T17:24:36.579Z,99539.52
2018-09-11T17:27:39.919Z,99547.06
2018-09-11T17:30:43.019Z,99549.16
2018-09-11T17:33:46.243Z,99550.89
2018-09-11T17:36:49.465Z,99552.20
2018-09-11T17:39:52.582Z,99552.78
2018-09-11T17:42:55.910Z,99566.86
2018-09-11T17:45:59.246Z,99572.70
2018-09-11T17:49:02.800Z,99571.44
2018-09-11T17:52:06.187Z,99574.73
2018-09-11T17:55:09.398Z,99574.33
2018-09-11T17:58:12.649Z,99571.75
2018-09-11T18:01:16.015Z,99573.33
2018-09-11T18:04:19.220Z,99574.37
2018-09-11T18:07:22.426Z,99572.80
2018-09-11T18:10:25.870Z,99583.70
2018-09-11T18:13:29.093Z,99584.10
2018-09-11T18:16:32.194Z,99591.19
2018-09-11T18:19:35.628Z,99585.86
2018-09-11T18:22:39.180Z,99583.30
2018-09-11T18:25:42.366Z,99583.31
2018-09-11T18:28:45.442Z,99596.55
2018-09-11T18:31:48.559Z,99598.55
2018-09-11T18:34:51.742Z,99608.22
2018-09-11T18:37:54.829Z,99609.70
2018-09-11T18:40:57.882Z,99608.33
2018-09-11T18:44:00.996Z,99608.78
2018-09-11T18:47:04.135Z,99611.63
2018-09-11T18:50:07.261Z,99606.89
2018-09-11T18:53:10.484Z,99614.31
2018-09-11T18:56:13.644Z,99617.32
2018-09-11T18:59:16.771Z,99611.17
2018-09-11T19:02:19.935Z,99609.83
2018-09-11T19:05:23.188Z,99605.25
2018-09-11T19:08:26.391Z,99609.66
2018-09-11T19:11:29.556Z,99606.05
2018-09-11T19:17:35.262Z,99621.14
2018-09-11T19:20:38.459Z,99621.32
2018-09-11T19:23:41.674Z,99626.19
2018-09-11T19:26:45.002Z,99618.72
2018-09-11T19:29:48.057Z,99627.35
2018-09-11T19:32:51.376Z,99628.05
2018-09-11T19:35:54.619Z,99628.11
2018-09-11T19:38:57.874Z,99630.59
2018-09-11T19:42:01.142Z,99627.06
2018-09-11T19:45:05.187Z,99632.10
2018-09-11T19:48:08.514Z,99630.55
2018-09-11T19:51:11.765Z,99638.30
2018-09-11T19:54:14.965Z,99626.38
2018-09-11T19:57:18.415Z,99626.53
2018-09-11T20:00:21.535Z,99628.73
2018-09-11T20:03:24.766Z,99630.35
2018-09-11T20:06:27.892Z,99631.84
2018-09-11T20:09:31.189Z,99634.13
2018-09-11T20:12:34.323Z,99637.57
2018-09-11T20:15:37.524Z,99630.30
2018-09-11T20:18:40.676Z,99632.96
2018-09-11T20:21:43.935Z,99626.42
2018-09-11T20:24:47.217Z,99637.95
2018-09-11T20:27:50.443Z,99634.91
2018-09-11T20:30:53.602Z,99635.68
2018-09-11T20:33:57.008Z,99639.81
2018-09-11T20:37:00.146Z,99643.73
2018-09-11T20:40:03.693Z,99633.48
2018-09-11T20:43:07.021Z,99630.78
2018-09-11T20:46:10.420Z,99638.02
2018-09-11T20:49:13.629Z,99635.16
2018-09-11T20:52:16.788Z,99642.56
2018-09-11T20:55:19.997Z,99646.47
2018-09-11T20:58:23.223Z,99642.23
2018-09-11T21:01:26.314Z,99643.94
2018-09-11T21:04:29.566Z,99644.82
2018-09-11T21:07:35.300Z,99647.52
2018-09-11T21:10:38.572Z,99649.64
2018-09-11T21:13:46.163Z,99642.97
2018-09-11T21:16:50.544Z,99650.59
2018-09-11T21:19:53.991Z,99647.56
2018-09-11T21:22:57.353Z,99649.58
2018-09-11T21:26:00.728Z,99654.74
2018-09-11T21:29:03.909Z,99651.55
2018-09-11T21:32:07.586Z,99653.39
2018-09-11T21:35:10.822Z,99650.59
2018-09-11T21:38:14.018Z,99656.34
2018-09-11T21:41:17.252Z,99652.01
2018-09-11T21:44:20.509Z,99650.16
2018-09-11T21:47:23.736Z,99651.80
2018-09-11T21:50:27.151Z,99650.33
2018-09-11T21:53:30.272Z,99658.22
2018-09-11T21:56:33.390Z,99656.09
2018-09-11T21:59:36.486Z,99654.53
2018-09-11T22:02:39.563Z,99653.86
2018-09-11T22:05:42.755Z,99649.39
2018-09-11T22:08:45.977Z,99647.77
2018-09-11T22:11:49.134Z,99659.16
2018-09-11T22:14:52.257Z,99653.43
2018-09-11T22:17:55.499Z,99656.08
2018-09-11T22:20:58.735Z,99662.77
2018-09-11T22:24:02.227Z,99661.11
2018-09-11T22:27:05.657Z,99657.83
2018-09-11T22:30:08.794Z,99655.23
2018-09-11T22:33:12.043Z,99660.53
2018-09-11T22:36:15.303Z,99652.63
2018-09-11T22:39:18.574Z,99651.30
2018-09-11T22:42:21.804Z,99649.28
2018-09-11T22:45:25.854Z,99650.95
2018-09-11T22:48:29.013Z,99649.31
2018-09-11T22:51:32.105Z,99648.30
2018-09-11T22:54:35.199Z,99639.51
2018-09-11T22:57:39.633Z,99639.92
2018-09-11T23:00:42.693Z,99629.53
2018-09-11T23:03:45.811Z,99628.61
2018-09-11T23:06:48.942Z,99622.69
2018-09-11T23:09:52.160Z,99625.66
2018-09-11T23:12:55.412Z,99621.37
2018-09-11T23:15:58.531Z,99622.11
2018-09-11T23:19:02.260Z,99625.42
2018-09-11T23:22:05.515Z,99619.85
2018-09-11T23:25:08.721Z,99622.03
2018-09-11T23:28:11.867Z,99617.61
2018-09-11T23:31:15.106Z,99618.73
2018-09-11T23:34:18.344Z,99613.05
2018-09-11T23:37:21.430Z,99607.31
2018-09-11T23:40:24.700Z,99607.06
2018-09-11T23:43:27.977Z,99607.13
2018-09-11T23:46:31.320Z,99607.84
2018-09-11T23:49:34.572Z,99608.05
2018-09-11T23:52:37.742Z,99609.11
2018-09-11T23:55:40.984Z,99604.24
2018-09-11T23:58:44.146Z,99608.82
